sensor_id;sensor_type;location;lat;lon;timestamp;temperature;humidity
34877;DHT22;21086;44.780;17.194;2023-12-14T00:02:01;10.60;99.90
34877;DHT22;21086;44.780;17.194;2023-12-14T00:04:28;10.50;99.90
34877;DHT22;21086;44.780;17.194;2023-12-14T00:06:55;10.50;99.90
34877;DHT22;21086;44.780;17.194;2023-12-14T00:09:22;10.60;99.90
34877;DHT22;21086;44.780;17.194;2023-12-14T00:11:49;10.60;99.90
34877;DHT22;21086;44.780;17.194;2023-12-14T00:14:16;10.50;99.90
34877;DHT22;21086;44.780;17.194;2023-12-14T00:16:43;10.50;99.90
34877;DHT22;21086;44.780;17.194;2023-12-14T00:19:11;10.40;99.90
34877;DHT22;21086;44.780;17.194;2023-12-14T00:21:38;10.50;99.90
34877;DHT22;21086;44.780;17.194;2023-12-14T00:24:05;10.40;99.90
34877;DHT22;21086;44.780;17.194;2023-12-14T00:26:32;10.40;99.90
34877;DHT22;21086;44.780;17.194;2023-12-14T00:28:59;10.40;99.90
34877;DHT22;21086;44.780;17.194;2023-12-14T00:31:28;10.30;99.90
34877;DHT22;21086;44.780;17.194;2023-12-14T00:33:55;10.40;99.90
34877;DHT22;21086;44.780;17.194;2023-12-14T00:36:22;10.40;99.90
34877;DHT22;21086;44.780;17.194;2023-12-14T00:38:49;10.40;99.90
34877;DHT22;21086;44.780;17.194;2023-12-14T00:41:16;10.30;99.90
34877;DHT22;21086;44.780;17.194;2023-12-14T00:43:43;10.40;99.90
34877;DHT22;21086;44.780;17.194;2023-12-14T00:46:10;10.50;99.90
34877;DHT22;21086;44.780;17.194;2023-12-14T00:48:38;10.40;99.90
34877;DHT22;21086;44.780;17.194;2023-12-14T00:51:05;10.40;99.90
34877;DHT22;21086;44.780;17.194;2023-12-14T00:53:32;10.40;99.90
34877;DHT22;21086;44.780;17.194;2023-12-14T00:55:59;10.50;99.90
34877;DHT22;21086;44.780;17.194;2023-12-14T00:58:26;10.50;99.90
34877;DHT22;21086;44.780;17.194;2023-12-14T01:00:53;10.40;99.90
34877;DHT22;21086;44.780;17.194;2023-12-14T01:03:21;10.40;99.90
34877;DHT22;21086;44.780;17.194;2023-12-14T01:05:49;10.40;99.90
34877;DHT22;21086;44.780;17.194;2023-12-14T01:08:16;10.40;99.90
34877;DHT22;21086;44.780;17.194;2023-12-14T01:10:43;10.40;99.90
34877;DHT22;21086;44.780;17.194;2023-12-14T01:13:10;10.40;99.90
34877;DHT22;21086;44.780;17.194;2023-12-14T01:15:37;10.40;99.90
34877;DHT22;21086;44.780;17.194;2023-12-14T01:18:04;10.40;99.90
34877;DHT22;21086;44.780;17.194;2023-12-14T01:20:32;10.40;99.90
34877;DHT22;21086;44.780;17.194;2023-12-14T01:22:59;10.40;99.90
34877;DHT22;21086;44.780;17.194;2023-12-14T01:25:26;10.50;99.90
34877;DHT22;21086;44.780;17.194;2023-12-14T01:27:53;10.50;99.90
34877;DHT22;21086;44.780;17.194;2023-12-14T01:30:20;10.50;99.90
34877;DHT22;21086;44.780;17.194;2023-12-14T01:32:47;10.50;99.90
34877;DHT22;21086;44.780;17.194;2023-12-14T01:35:14;10.50;99.90
34877;DHT22;21086;44.780;17.194;2023-12-14T01:37:41;10.50;99.90
34877;DHT22;21086;44.780;17.194;2023-12-14T01:40:08;10.40;99.90
34877;DHT22;21086;44.780;17.194;2023-12-14T01:42:37;10.40;99.90
34877;DHT22;21086;44.780;17.194;2023-12-14T01:45:05;10.50;99.90
34877;DHT22;21086;44.780;17.194;2023-12-14T01:47:32;10.50;99.90
34877;DHT22;21086;44.780;17.194;2023-12-14T01:49:59;10.50;99.90
34877;DHT22;21086;44.780;17.194;2023-12-14T01:52:26;10.40;99.90
34877;DHT22;21086;44.780;17.194;2023-12-14T01:54:53;10.50;99.90
34877;DHT22;21086;44.780;17.194;2023-12-14T01:57:22;10.50;99.90
34877;DHT22;21086;44.780;17.194;2023-12-14T01:59:49;10.50;99.90
34877;DHT22;21086;44.780;17.194;2023-12-14T02:02:16;10.50;99.90
34877;DHT22;21086;44.780;17.194;2023-12-14T02:04:43;10.40;99.90
34877;DHT22;21086;44.780;17.194;2023-12-14T02:07:10;10.40;99.90
34877;DHT22;21086;44.780;17.194;2023-12-14T02:09:37;10.50;99.90
34877;DHT22;21086;44.780;17.194;2023-12-14T02:12:05;10.50;99.90
34877;DHT22;21086;44.780;17.194;2023-12-14T02:14:32;10.40;99.90
34877;DHT22;21086;44.780;17.194;2023-12-14T02:16:59;10.40;99.90
34877;DHT22;21086;44.780;17.194;2023-12-14T02:19:26;10.40;99.90
34877;DHT22;21086;44.780;17.194;2023-12-14T02:21:53;10.50;99.90
34877;DHT22;21086;44.780;17.194;2023-12-14T02:24:20;10.50;99.90
34877;DHT22;21086;44.780;17.194;2023-12-14T02:26:47;10.50;99.90
34877;DHT22;21086;44.780;17.194;2023-12-14T02:29:29;10.50;99.90
34877;DHT22;21086;44.780;17.194;2023-12-14T02:31:56;10.40;99.90
34877;DHT22;21086;44.780;17.194;2023-12-14T02:34:23;10.50;99.90
34877;DHT22;21086;44.780;17.194;2023-12-14T02:36:52;10.40;99.90
34877;DHT22;21086;44.780;17.194;2023-12-14T02:39:19;10.40;99.90
34877;DHT22;21086;44.780;17.194;2023-12-14T02:41:46;10.40;99.90
34877;DHT22;21086;44.780;17.194;2023-12-14T02:44:13;10.40;99.90
34877;DHT22;21086;44.780;17.194;2023-12-14T02:46:40;10.40;99.90
34877;DHT22;21086;44.780;17.194;2023-12-14T02:49:07;10.40;99.90
34877;DHT22;21086;44.780;17.194;2023-12-14T02:51:34;10.50;99.90
34877;DHT22;21086;44.780;17.194;2023-12-14T02:54:01;10.50;99.90
34877;DHT22;21086;44.780;17.194;2023-12-14T02:56:28;10.50;99.90
34877;DHT22;21086;44.780;17.194;2023-12-14T02:58:55;10.40;99.90
34877;DHT22;21086;44.780;17.194;2023-12-14T03:01:22;10.20;99.90
34877;DHT22;21086;44.780;17.194;2023-12-14T03:03:49;10.00;99.90
34877;DHT22;21086;44.780;17.194;2023-12-14T03:06:16;9.90;99.90
34877;DHT22;21086;44.780;17.194;2023-12-14T03:08:43;9.80;99.90
34877;DHT22;21086;44.780;17.194;2023-12-14T03:11:10;9.80;99.90
34877;DHT22;21086;44.780;17.194;2023-12-14T03:13:47;9.80;99.90
34877;DHT22;21086;44.780;17.194;2023-12-14T03:16:14;9.60;99.90
34877;DHT22;21086;44.780;17.194;2023-12-14T03:18:41;9.60;99.90
34877;DHT22;21086;44.780;17.194;2023-12-14T03:21:09;9.70;99.90
34877;DHT22;21086;44.780;17.194;2023-12-14T03:23:36;9.70;99.90
34877;DHT22;21086;44.780;17.194;2023-12-14T03:26:03;9.80;99.90
34877;DHT22;21086;44.780;17.194;2023-12-14T03:28:30;9.80;99.90
34877;DHT22;21086;44.780;17.194;2023-12-14T03:30:57;9.90;99.90
34877;DHT22;21086;44.780;17.194;2023-12-14T03:33:24;9.80;99.90
34877;DHT22;21086;44.780;17.194;2023-12-14T03:35:51;9.90;99.90
34877;DHT22;21086;44.780;17.194;2023-12-14T03:38:18;9.90;99.90
34877;DHT22;21086;44.780;17.194;2023-12-14T03:40:45;9.70;99.90
34877;DHT22;21086;44.780;17.194;2023-12-14T03:43:12;9.70;99.90
34877;DHT22;21086;44.780;17.194;2023-12-14T03:45:39;9.70;99.90
34877;DHT22;21086;44.780;17.194;2023-12-14T03:48:06;9.60;99.90
34877;DHT22;21086;44.780;17.194;2023-12-14T03:50:33;9.60;99.90
34877;DHT22;21086;44.780;17.194;2023-12-14T03:53:00;9.50;99.90
34877;DHT22;21086;44.780;17.194;2023-12-14T03:55:27;9.60;99.90
34877;DHT22;21086;44.780;17.194;2023-12-14T03:57:54;9.70;99.90
34877;DHT22;21086;44.780;17.194;2023-12-14T04:00:21;9.70;99.90
34877;DHT22;21086;44.780;17.194;2023-12-14T04:02:48;9.80;99.90
34877;DHT22;21086;44.780;17.194;2023-12-14T04:05:16;9.80;99.90
34877;DHT22;21086;44.780;17.194;2023-12-14T04:07:43;9.90;99.90
34877;DHT22;21086;44.780;17.194;2023-12-14T04:10:11;9.80;99.90
34877;DHT22;21086;44.780;17.194;2023-12-14T04:12:39;9.90;99.90
34877;DHT22;21086;44.780;17.194;2023-12-14T04:15:08;9.80;99.90
34877;DHT22;21086;44.780;17.194;2023-12-14T04:17:36;9.80;99.90
34877;DHT22;21086;44.780;17.194;2023-12-14T04:20:04;9.80;99.90
34877;DHT22;21086;44.780;17.194;2023-12-14T04:22:33;9.80;99.90
34877;DHT22;21086;44.780;17.194;2023-12-14T04:25:00;9.90;99.90
34877;DHT22;21086;44.780;17.194;2023-12-14T04:27:27;9.80;99.90
34877;DHT22;21086;44.780;17.194;2023-12-14T04:29:56;9.80;99.90
34877;DHT22;21086;44.780;17.194;2023-12-14T04:32:23;9.90;99.90
34877;DHT22;21086;44.780;17.194;2023-12-14T04:34:50;9.80;99.90
34877;DHT22;21086;44.780;17.194;2023-12-14T04:37:17;9.80;99.90
34877;DHT22;21086;44.780;17.194;2023-12-14T04:39:44;9.80;99.90
34877;DHT22;21086;44.780;17.194;2023-12-14T04:42:11;9.80;99.90
34877;DHT22;21086;44.780;17.194;2023-12-14T04:44:38;9.80;99.90
34877;DHT22;21086;44.780;17.194;2023-12-14T04:47:05;9.90;99.90
34877;DHT22;21086;44.780;17.194;2023-12-14T04:49:33;9.80;99.90
34877;DHT22;21086;44.780;17.194;2023-12-14T04:52:00;9.80;99.90
34877;DHT22;21086;44.780;17.194;2023-12-14T04:54:27;9.90;99.90
34877;DHT22;21086;44.780;17.194;2023-12-14T04:56:54;9.80;99.90
34877;DHT22;21086;44.780;17.194;2023-12-14T04:59:20;9.70;99.90
34877;DHT22;21086;44.780;17.194;2023-12-14T05:01:47;9.70;99.90
34877;DHT22;21086;44.780;17.194;2023-12-14T05:04:14;9.70;99.90
34877;DHT22;21086;44.780;17.194;2023-12-14T05:06:41;9.70;99.90
34877;DHT22;21086;44.780;17.194;2023-12-14T05:09:08;9.60;99.90
34877;DHT22;21086;44.780;17.194;2023-12-14T05:11:40;9.60;99.90
34877;DHT22;21086;44.780;17.194;2023-12-14T05:14:07;9.70;99.90
34877;DHT22;21086;44.780;17.194;2023-12-14T05:16:34;9.60;99.90
34877;DHT22;21086;44.780;17.194;2023-12-14T05:19:01;9.70;99.90
34877;DHT22;21086;44.780;17.194;2023-12-14T05:21:28;9.70;99.90
34877;DHT22;21086;44.780;17.194;2023-12-14T05:23:55;9.70;99.90
34877;DHT22;21086;44.780;17.194;2023-12-14T05:26:22;9.70;99.90
34877;DHT22;21086;44.780;17.194;2023-12-14T05:28:49;9.90;99.90
34877;DHT22;21086;44.780;17.194;2023-12-14T05:31:16;9.90;99.90
34877;DHT22;21086;44.780;17.194;2023-12-14T05:33:43;9.90;99.90
34877;DHT22;21086;44.780;17.194;2023-12-14T05:36:10;9.80;99.90
34877;DHT22;21086;44.780;17.194;2023-12-14T05:38:41;9.70;99.90
34877;DHT22;21086;44.780;17.194;2023-12-14T05:41:09;9.70;99.90
34877;DHT22;21086;44.780;17.194;2023-12-14T05:43:36;9.60;99.90
34877;DHT22;21086;44.780;17.194;2023-12-14T05:46:04;9.60;99.90
34877;DHT22;21086;44.780;17.194;2023-12-14T05:48:31;9.60;99.90
34877;DHT22;21086;44.780;17.194;2023-12-14T05:51:00;9.60;99.90
34877;DHT22;21086;44.780;17.194;2023-12-14T05:53:27;9.50;99.90
34877;DHT22;21086;44.780;17.194;2023-12-14T05:55:54;9.50;99.90
34877;DHT22;21086;44.780;17.194;2023-12-14T05:58:22;9.50;99.90
34877;DHT22;21086;44.780;17.194;2023-12-14T06:00:49;9.50;99.90
34877;DHT22;21086;44.780;17.194;2023-12-14T06:03:16;9.40;99.90
34877;DHT22;21086;44.780;17.194;2023-12-14T06:05:43;9.30;99.90
34877;DHT22;21086;44.780;17.194;2023-12-14T06:08:10;9.30;99.90
34877;DHT22;21086;44.780;17.194;2023-12-14T06:10:38;9.30;99.90
34877;DHT22;21086;44.780;17.194;2023-12-14T06:13:05;9.30;99.90
34877;DHT22;21086;44.780;17.194;2023-12-14T06:15:32;9.30;99.90
34877;DHT22;21086;44.780;17.194;2023-12-14T06:17:59;9.30;99.90
34877;DHT22;21086;44.780;17.194;2023-12-14T06:20:26;9.40;99.90
34877;DHT22;21086;44.780;17.194;2023-12-14T06:22:53;9.40;99.90
34877;DHT22;21086;44.780;17.194;2023-12-14T06:25:21;9.50;99.90
34877;DHT22;21086;44.780;17.194;2023-12-14T06:27:48;9.50;99.90
34877;DHT22;21086;44.780;17.194;2023-12-14T06:30:16;9.50;99.90
34877;DHT22;21086;44.780;17.194;2023-12-14T06:32:43;9.40;99.90
34877;DHT22;21086;44.780;17.194;2023-12-14T06:35:10;9.50;99.90
34877;DHT22;21086;44.780;17.194;2023-12-14T06:37:38;9.50;99.90
34877;DHT22;21086;44.780;17.194;2023-12-14T06:40:05;9.70;99.90
34877;DHT22;21086;44.780;17.194;2023-12-14T06:42:32;9.80;99.90
34877;DHT22;21086;44.780;17.194;2023-12-14T06:45:02;9.90;99.90
34877;DHT22;21086;44.780;17.194;2023-12-14T06:47:29;9.90;99.90
34877;DHT22;21086;44.780;17.194;2023-12-14T06:49:56;10.00;99.90
34877;DHT22;21086;44.780;17.194;2023-12-14T06:52:24;10.10;99.90
34877;DHT22;21086;44.780;17.194;2023-12-14T06:54:51;10.20;99.90
34877;DHT22;21086;44.780;17.194;2023-12-14T06:57:18;10.20;99.90
34877;DHT22;21086;44.780;17.194;2023-12-14T06:59:45;10.30;99.90
34877;DHT22;21086;44.780;17.194;2023-12-14T07:02:12;10.30;99.90
34877;DHT22;21086;44.780;17.194;2023-12-14T07:04:39;10.30;99.90
34877;DHT22;21086;44.780;17.194;2023-12-14T07:07:06;10.30;99.90
34877;DHT22;21086;44.780;17.194;2023-12-14T07:09:34;10.40;99.90
34877;DHT22;21086;44.780;17.194;2023-12-14T07:12:01;10.40;99.90
34877;DHT22;21086;44.780;17.194;2023-12-14T07:14:29;10.40;99.90
34877;DHT22;21086;44.780;17.194;2023-12-14T07:16:56;10.40;99.90
34877;DHT22;21086;44.780;17.194;2023-12-14T07:19:23;10.60;99.90
34877;DHT22;21086;44.780;17.194;2023-12-14T07:21:50;10.70;99.90
34877;DHT22;21086;44.780;17.194;2023-12-14T07:24:17;10.60;99.90
34877;DHT22;21086;44.780;17.194;2023-12-14T07:26:44;10.60;99.90
34877;DHT22;21086;44.780;17.194;2023-12-14T07:29:11;10.60;99.90
34877;DHT22;21086;44.780;17.194;2023-12-14T07:31:38;10.50;99.90
34877;DHT22;21086;44.780;17.194;2023-12-14T07:34:05;10.60;99.90
34877;DHT22;21086;44.780;17.194;2023-12-14T07:36:32;10.50;99.90
34877;DHT22;21086;44.780;17.194;2023-12-14T07:38:59;10.50;99.90
34877;DHT22;21086;44.780;17.194;2023-12-14T07:41:27;10.50;99.90
34877;DHT22;21086;44.780;17.194;2023-12-14T07:43:56;10.50;99.90
34877;DHT22;21086;44.780;17.194;2023-12-14T07:46:23;10.50;99.90
34877;DHT22;21086;44.780;17.194;2023-12-14T07:48:50;10.50;99.90
34877;DHT22;21086;44.780;17.194;2023-12-14T07:51:17;10.60;99.90
34877;DHT22;21086;44.780;17.194;2023-12-14T07:53:44;10.50;99.90
34877;DHT22;21086;44.780;17.194;2023-12-14T07:56:13;10.50;99.90
34877;DHT22;21086;44.780;17.194;2023-12-14T07:58:42;10.60;99.90
34877;DHT22;21086;44.780;17.194;2023-12-14T08:01:09;10.60;99.90
34877;DHT22;21086;44.780;17.194;2023-12-14T08:03:36;10.70;99.90
34877;DHT22;21086;44.780;17.194;2023-12-14T08:06:03;10.70;99.90
34877;DHT22;21086;44.780;17.194;2023-12-14T08:08:31;10.70;99.90
34877;DHT22;21086;44.780;17.194;2023-12-14T08:10:58;10.60;99.90
34877;DHT22;21086;44.780;17.194;2023-12-14T08:13:25;10.60;99.90
34877;DHT22;21086;44.780;17.194;2023-12-14T08:15:52;10.40;99.90
34877;DHT22;21086;44.780;17.194;2023-12-14T08:18:18;10.00;99.90
34877;DHT22;21086;44.780;17.194;2023-12-14T08:20:45;9.90;99.90
34877;DHT22;21086;44.780;17.194;2023-12-14T08:23:12;9.90;99.90
34877;DHT22;21086;44.780;17.194;2023-12-14T08:25:39;9.90;99.90
34877;DHT22;21086;44.780;17.194;2023-12-14T08:28:07;10.00;99.90
34877;DHT22;21086;44.780;17.194;2023-12-14T08:30:34;10.00;99.90
34877;DHT22;21086;44.780;17.194;2023-12-14T08:33:01;10.10;99.90
34877;DHT22;21086;44.780;17.194;2023-12-14T08:35:28;10.10;99.90
34877;DHT22;21086;44.780;17.194;2023-12-14T08:37:55;10.10;99.90
34877;DHT22;21086;44.780;17.194;2023-12-14T08:40:23;10.20;99.90
34877;DHT22;21086;44.780;17.194;2023-12-14T08:42:49;10.20;99.90
34877;DHT22;21086;44.780;17.194;2023-12-14T08:45:16;10.20;99.90
34877;DHT22;21086;44.780;17.194;2023-12-14T08:47:44;10.20;99.90
34877;DHT22;21086;44.780;17.194;2023-12-14T08:50:10;10.10;99.90
34877;DHT22;21086;44.780;17.194;2023-12-14T08:52:38;10.10;99.90
34877;DHT22;21086;44.780;17.194;2023-12-14T08:55:05;10.20;99.90
34877;DHT22;21086;44.780;17.194;2023-12-14T08:57:32;10.20;99.90
34877;DHT22;21086;44.780;17.194;2023-12-14T08:59:59;10.20;99.90
34877;DHT22;21086;44.780;17.194;2023-12-14T09:02:26;10.10;99.90
34877;DHT22;21086;44.780;17.194;2023-12-14T09:04:53;10.00;99.90
34877;DHT22;21086;44.780;17.194;2023-12-14T09:07:21;10.00;99.90
34877;DHT22;21086;44.780;17.194;2023-12-14T09:09:48;9.90;99.90
34877;DHT22;21086;44.780;17.194;2023-12-14T09:12:14;10.00;99.90
34877;DHT22;21086;44.780;17.194;2023-12-14T09:14:41;10.00;99.90
34877;DHT22;21086;44.780;17.194;2023-12-14T09:17:08;10.10;99.90
34877;DHT22;21086;44.780;17.194;2023-12-14T09:19:35;10.10;99.90
34877;DHT22;21086;44.780;17.194;2023-12-14T09:22:03;10.00;99.90
34877;DHT22;21086;44.780;17.194;2023-12-14T09:24:30;9.90;99.90
34877;DHT22;21086;44.780;17.194;2023-12-14T09:26:57;9.90;99.90
34877;DHT22;21086;44.780;17.194;2023-12-14T09:29:23;9.90;99.90
34877;DHT22;21086;44.780;17.194;2023-12-14T09:31:50;9.90;99.90
34877;DHT22;21086;44.780;17.194;2023-12-14T09:34:18;10.00;99.90
34877;DHT22;21086;44.780;17.194;2023-12-14T09:36:45;10.00;99.90
34877;DHT22;21086;44.780;17.194;2023-12-14T09:39:12;10.10;99.90
34877;DHT22;21086;44.780;17.194;2023-12-14T09:41:39;10.00;99.90
34877;DHT22;21086;44.780;17.194;2023-12-14T09:44:06;10.10;99.90
34877;DHT22;21086;44.780;17.194;2023-12-14T09:46:37;10.00;99.90
34877;DHT22;21086;44.780;17.194;2023-12-14T09:49:05;10.10;99.90
34877;DHT22;21086;44.780;17.194;2023-12-14T09:51:35;9.90;99.90
34877;DHT22;21086;44.780;17.194;2023-12-14T09:54:04;10.00;99.90
34877;DHT22;21086;44.780;17.194;2023-12-14T09:56:31;10.10;99.90
34877;DHT22;21086;44.780;17.194;2023-12-14T09:58:58;10.00;99.90
34877;DHT22;21086;44.780;17.194;2023-12-14T10:01:28;9.90;99.90
34877;DHT22;21086;44.780;17.194;2023-12-14T10:04:10;9.90;99.90
34877;DHT22;21086;44.780;17.194;2023-12-14T10:06:38;9.70;99.90
34877;DHT22;21086;44.780;17.194;2023-12-14T10:09:06;9.80;99.90
34877;DHT22;21086;44.780;17.194;2023-12-14T10:11:36;9.80;99.90
34877;DHT22;21086;44.780;17.194;2023-12-14T10:14:24;9.80;99.90
34877;DHT22;21086;44.780;17.194;2023-12-14T10:16:55;9.80;99.90
34877;DHT22;21086;44.780;17.194;2023-12-14T10:19:29;9.70;99.90
34877;DHT22;21086;44.780;17.194;2023-12-14T10:21:57;9.80;99.90
34877;DHT22;21086;44.780;17.194;2023-12-14T10:24:24;9.70;99.90
34877;DHT22;21086;44.780;17.194;2023-12-14T10:26:51;9.60;99.90
34877;DHT22;21086;44.780;17.194;2023-12-14T10:29:18;9.50;99.90
34877;DHT22;21086;44.780;17.194;2023-12-14T10:31:46;9.40;99.90
34877;DHT22;21086;44.780;17.194;2023-12-14T10:34:13;9.40;99.90
34877;DHT22;21086;44.780;17.194;2023-12-14T10:36:40;9.50;99.90
34877;DHT22;21086;44.780;17.194;2023-12-14T10:39:10;9.60;99.90
34877;DHT22;21086;44.780;17.194;2023-12-14T10:41:40;9.60;99.90
34877;DHT22;21086;44.780;17.194;2023-12-14T10:44:07;9.60;99.90
34877;DHT22;21086;44.780;17.194;2023-12-14T10:46:55;9.50;99.90
34877;DHT22;21086;44.780;17.194;2023-12-14T10:49:25;9.50;99.90
34877;DHT22;21086;44.780;17.194;2023-12-14T10:51:54;9.40;99.90
34877;DHT22;21086;44.780;17.194;2023-12-14T10:54:25;9.40;99.90
34877;DHT22;21086;44.780;17.194;2023-12-14T10:56:56;9.40;99.90
34877;DHT22;21086;44.780;17.194;2023-12-14T10:59:25;9.40;99.90
34877;DHT22;21086;44.780;17.194;2023-12-14T11:01:54;9.30;99.90
34877;DHT22;21086;44.780;17.194;2023-12-14T11:04:22;9.40;99.90
34877;DHT22;21086;44.780;17.194;2023-12-14T11:06:49;9.40;99.90
34877;DHT22;21086;44.780;17.194;2023-12-14T11:09:19;9.30;99.90
34877;DHT22;21086;44.780;17.194;2023-12-14T11:14:20;9.30;99.90
34877;DHT22;21086;44.780;17.194;2023-12-14T11:16:51;9.30;99.90
34877;DHT22;21086;44.780;17.194;2023-12-14T11:19:25;9.40;99.90
34877;DHT22;21086;44.780;17.194;2023-12-14T11:24:22;9.30;99.90
34877;DHT22;21086;44.780;17.194;2023-12-14T11:26:50;9.30;99.90
34877;DHT22;21086;44.780;17.194;2023-12-14T11:29:18;9.30;99.90
34877;DHT22;21086;44.780;17.194;2023-12-14T11:31:46;9.40;99.90
34877;DHT22;21086;44.780;17.194;2023-12-14T11:34:15;9.40;99.90
34877;DHT22;21086;44.780;17.194;2023-12-14T11:36:42;9.30;99.90
34877;DHT22;21086;44.780;17.194;2023-12-14T11:39:09;9.40;99.90
34877;DHT22;21086;44.780;17.194;2023-12-14T11:41:36;9.70;99.90
34877;DHT22;21086;44.780;17.194;2023-12-14T11:44:05;9.90;99.90
34877;DHT22;21086;44.780;17.194;2023-12-14T11:46:33;10.10;99.90
34877;DHT22;21086;44.780;17.194;2023-12-14T11:49:00;10.30;99.90
34877;DHT22;21086;44.780;17.194;2023-12-14T11:51:30;10.30;99.90
34877;DHT22;21086;44.780;17.194;2023-12-14T11:54:00;10.40;99.90
34877;DHT22;21086;44.780;17.194;2023-12-14T11:56:29;10.60;99.90
34877;DHT22;21086;44.780;17.194;2023-12-14T11:58:57;10.80;99.90
34877;DHT22;21086;44.780;17.194;2023-12-14T12:01:24;11.00;99.90
34877;DHT22;21086;44.780;17.194;2023-12-14T12:03:53;11.10;99.90
34877;DHT22;21086;44.780;17.194;2023-12-14T12:06:25;11.30;99.90
34877;DHT22;21086;44.780;17.194;2023-12-14T12:08:54;11.40;99.90
34877;DHT22;21086;44.780;17.194;2023-12-14T12:11:23;11.50;99.90
34877;DHT22;21086;44.780;17.194;2023-12-14T12:13:56;11.60;99.90
34877;DHT22;21086;44.780;17.194;2023-12-14T12:16:24;11.50;99.90
34877;DHT22;21086;44.780;17.194;2023-12-14T12:18:52;11.40;99.90
34877;DHT22;21086;44.780;17.194;2023-12-14T12:21:19;11.70;99.90
34877;DHT22;21086;44.780;17.194;2023-12-14T12:23:47;11.60;99.90
34877;DHT22;21086;44.780;17.194;2023-12-14T12:26:14;11.50;99.90
34877;DHT22;21086;44.780;17.194;2023-12-14T12:28:41;11.80;99.90
34877;DHT22;21086;44.780;17.194;2023-12-14T12:31:08;11.80;99.90
34877;DHT22;21086;44.780;17.194;2023-12-14T12:33:36;11.90;99.90
34877;DHT22;21086;44.780;17.194;2023-12-14T12:36:05;11.80;99.90
34877;DHT22;21086;44.780;17.194;2023-12-14T12:38:32;11.70;99.90
34877;DHT22;21086;44.780;17.194;2023-12-14T12:41:00;11.50;99.90
34877;DHT22;21086;44.780;17.194;2023-12-14T12:43:28;11.50;99.90
34877;DHT22;21086;44.780;17.194;2023-12-14T12:45:55;11.40;99.90
34877;DHT22;21086;44.780;17.194;2023-12-14T12:48:22;11.50;99.90
34877;DHT22;21086;44.780;17.194;2023-12-14T12:50:53;11.50;99.90
34877;DHT22;21086;44.780;17.194;2023-12-14T12:53:20;11.60;99.90
34877;DHT22;21086;44.780;17.194;2023-12-14T12:55:47;11.50;99.90
34877;DHT22;21086;44.780;17.194;2023-12-14T12:58:14;11.40;99.90
34877;DHT22;21086;44.780;17.194;2023-12-14T13:00:41;11.40;99.90
34877;DHT22;21086;44.780;17.194;2023-12-14T13:03:09;11.60;99.90
34877;DHT22;21086;44.780;17.194;2023-12-14T13:05:37;11.60;99.90
34877;DHT22;21086;44.780;17.194;2023-12-14T13:08:04;11.60;99.90
34877;DHT22;21086;44.780;17.194;2023-12-14T13:10:31;11.70;99.90
34877;DHT22;21086;44.780;17.194;2023-12-14T13:12:59;11.90;99.90
34877;DHT22;21086;44.780;17.194;2023-12-14T13:15:27;12.00;99.90
34877;DHT22;21086;44.780;17.194;2023-12-14T13:17:57;11.90;99.90
34877;DHT22;21086;44.780;17.194;2023-12-14T13:20:25;11.90;99.90
34877;DHT22;21086;44.780;17.194;2023-12-14T13:22:53;11.70;99.90
34877;DHT22;21086;44.780;17.194;2023-12-14T13:25:21;11.70;99.90
34877;DHT22;21086;44.780;17.194;2023-12-14T13:27:53;11.40;99.90
34877;DHT22;21086;44.780;17.194;2023-12-14T13:30:20;11.10;99.90
34877;DHT22;21086;44.780;17.194;2023-12-14T13:32:50;11.10;99.90
34877;DHT22;21086;44.780;17.194;2023-12-14T13:35:17;11.30;99.90
34877;DHT22;21086;44.780;17.194;2023-12-14T13:37:45;11.30;99.90
34877;DHT22;21086;44.780;17.194;2023-12-14T13:40:13;11.40;99.90
34877;DHT22;21086;44.780;17.194;2023-12-14T13:42:42;11.50;99.90
34877;DHT22;21086;44.780;17.194;2023-12-14T13:45:25;11.60;99.90
34877;DHT22;21086;44.780;17.194;2023-12-14T13:47:53;11.50;99.90
34877;DHT22;21086;44.780;17.194;2023-12-14T13:50:20;11.40;99.90
34877;DHT22;21086;44.780;17.194;2023-12-14T13:52:48;11.40;99.90
34877;DHT22;21086;44.780;17.194;2023-12-14T13:55:15;11.20;99.90
34877;DHT22;21086;44.780;17.194;2023-12-14T13:57:42;11.00;99.90
34877;DHT22;21086;44.780;17.194;2023-12-14T14:00:10;10.70;99.90
34877;DHT22;21086;44.780;17.194;2023-12-14T14:02:38;10.60;99.90
34877;DHT22;21086;44.780;17.194;2023-12-14T14:05:05;10.40;99.90
34877;DHT22;21086;44.780;17.194;2023-12-14T14:07:32;10.30;99.90
34877;DHT22;21086;44.780;17.194;2023-12-14T14:10:00;10.30;99.90
34877;DHT22;21086;44.780;17.194;2023-12-14T14:12:27;10.10;99.90
34877;DHT22;21086;44.780;17.194;2023-12-14T14:14:54;10.10;99.90
34877;DHT22;21086;44.780;17.194;2023-12-14T14:17:21;10.10;99.90
34877;DHT22;21086;44.780;17.194;2023-12-14T14:19:48;10.10;99.90
34877;DHT22;21086;44.780;17.194;2023-12-14T14:22:15;10.10;99.90
34877;DHT22;21086;44.780;17.194;2023-12-14T14:24:42;10.00;99.90
34877;DHT22;21086;44.780;17.194;2023-12-14T14:27:09;10.10;99.90
34877;DHT22;21086;44.780;17.194;2023-12-14T14:29:36;10.00;99.90
34877;DHT22;21086;44.780;17.194;2023-12-14T14:32:03;10.10;99.90
34877;DHT22;21086;44.780;17.194;2023-12-14T14:34:30;10.30;99.90
34877;DHT22;21086;44.780;17.194;2023-12-14T14:36:57;10.20;99.90
34877;DHT22;21086;44.780;17.194;2023-12-14T14:39:24;10.20;99.90
34877;DHT22;21086;44.780;17.194;2023-12-14T14:41:51;10.40;99.90
34877;DHT22;21086;44.780;17.194;2023-12-14T14:44:18;10.40;99.90
34877;DHT22;21086;44.780;17.194;2023-12-14T14:46:45;10.40;99.90
34877;DHT22;21086;44.780;17.194;2023-12-14T14:49:12;10.40;99.90
34877;DHT22;21086;44.780;17.194;2023-12-14T14:51:39;10.50;99.90
34877;DHT22;21086;44.780;17.194;2023-12-14T14:54:06;10.60;99.90
34877;DHT22;21086;44.780;17.194;2023-12-14T14:56:33;10.70;99.90
34877;DHT22;21086;44.780;17.194;2023-12-14T14:59:00;10.70;99.90
34877;DHT22;21086;44.780;17.194;2023-12-14T15:01:27;10.50;99.90
34877;DHT22;21086;44.780;17.194;2023-12-14T15:03:54;10.60;99.90
34877;DHT22;21086;44.780;17.194;2023-12-14T15:06:21;10.40;99.90
34877;DHT22;21086;44.780;17.194;2023-12-14T15:08:49;10.40;99.90
34877;DHT22;21086;44.780;17.194;2023-12-14T15:11:16;10.30;99.90
34877;DHT22;21086;44.780;17.194;2023-12-14T15:13:43;10.20;99.90
34877;DHT22;21086;44.780;17.194;2023-12-14T15:16:11;10.20;99.90
34877;DHT22;21086;44.780;17.194;2023-12-14T15:18:38;10.20;99.90
34877;DHT22;21086;44.780;17.194;2023-12-14T15:21:09;10.10;99.90
34877;DHT22;21086;44.780;17.194;2023-12-14T15:23:38;10.00;99.90
34877;DHT22;21086;44.780;17.194;2023-12-14T15:26:05;10.00;99.90
34877;DHT22;21086;44.780;17.194;2023-12-14T15:28:40;10.00;99.90
34877;DHT22;21086;44.780;17.194;2023-12-14T15:31:07;9.90;99.90